sensor_id;sensor_type;location;lat;lon;timestamp;pressure;altitude;pressure_sealevel;temperature;humidity
22830;BME280;11581;51.250;6.778;2023-02-25T00:01:32;100244.59;;;7.64;64.01
22830;BME280;11581;51.250;6.778;2023-02-25T00:03:58;100276.88;;;7.79;64.11
22830;BME280;11581;51.250;6.778;2023-02-25T00:06:27;100272.38;;;7.79;63.94
22830;BME280;11581;51.250;6.778;2023-02-25T00:08:54;100278.38;;;7.81;63.96
22830;BME280;11581;51.250;6.778;2023-02-25T00:11:23;100290.53;;;7.84;64.21
22830;BME280;11581;51.250;6.778;2023-02-25T00:13:50;100287.88;;;7.84;63.92
22830;BME280;11581;51.250;6.778;2023-02-25T00:16:18;100283.41;;;7.84;63.85
22830;BME280;11581;51.250;6.778;2023-02-25T00:18:45;100272.66;;;7.86;64.17
22830;BME280;11581;51.250;6.778;2023-02-25T00:21:14;100229.94;;;7.60;63.76
22830;BME280;11581;51.250;6.778;2023-02-25T00:23:46;100273.66;;;7.85;63.75
22830;BME280;11581;51.250;6.778;2023-02-25T00:26:14;100245.84;;;7.70;64.07
22830;BME280;11581;51.250;6.778;2023-02-25T00:28:41;100238.72;;;7.61;64.07
22830;BME280;11581;51.250;6.778;2023-02-25T00:31:11;100239.84;;;7.68;63.65
22830;BME280;11581;51.250;6.778;2023-02-25T00:33:39;100271.28;;;7.82;63.93
22830;BME280;11581;51.250;6.778;2023-02-25T00:36:08;100264.25;;;7.81;63.92
22830;BME280;11581;51.250;6.778;2023-02-25T00:38:35;100271.56;;;7.79;63.63
22830;BME280;11581;51.250;6.778;2023-02-25T00:41:08;100261.88;;;7.78;63.53
22830;BME280;11581;51.250;6.778;2023-02-25T00:43:37;100263.88;;;7.76;63.45
22830;BME280;11581;51.250;6.778;2023-02-25T00:46:04;100272.81;;;7.75;63.70
22830;BME280;11581;51.250;6.778;2023-02-25T00:48:31;100260.78;;;7.71;63.36
22830;BME280;11581;51.250;6.778;2023-02-25T00:51:03;100117.84;;;6.82;63.50
22830;BME280;11581;51.250;6.778;2023-02-25T00:53:30;100217.22;;;7.45;63.70
22830;BME280;11581;51.250;6.778;2023-02-25T00:55:58;100267.50;;;7.65;63.75
22830;BME280;11581;51.250;6.778;2023-02-25T00:58:27;100264.97;;;7.64;63.77
22830;BME280;11581;51.250;6.778;2023-02-25T01:00:54;100262.47;;;7.62;63.74
22830;BME280;11581;51.250;6.778;2023-02-25T01:03:21;100263.59;;;7.60;63.54
22830;BME280;11581;51.250;6.778;2023-02-25T01:05:49;100260.94;;;7.60;63.76
22830;BME280;11581;51.250;6.778;2023-02-25T01:08:17;100262.75;;;7.59;63.69
22830;BME280;11581;51.250;6.778;2023-02-25T01:10:44;100256.63;;;7.59;63.54
22830;BME280;11581;51.250;6.778;2023-02-25T01:13:11;100272.53;;;7.59;63.60
22830;BME280;11581;51.250;6.778;2023-02-25T01:15:52;100198.53;;;7.18;63.51
22830;BME280;11581;51.250;6.778;2023-02-25T01:18:18;100267.63;;;7.45;63.72
22830;BME280;11581;51.250;6.778;2023-02-25T01:20:46;100262.88;;;7.58;63.54
22830;BME280;11581;51.250;6.778;2023-02-25T01:23:12;100265.53;;;7.58;63.57
22830;BME280;11581;51.250;6.778;2023-02-25T01:25:39;100269.19;;;7.57;63.67
22830;BME280;11581;51.250;6.778;2023-02-25T01:28:07;100241.78;;;7.37;63.79
22830;BME280;11581;51.250;6.778;2023-02-25T01:30:34;100267.66;;;7.54;63.30
22830;BME280;11581;51.250;6.778;2023-02-25T01:33:03;100278.41;;;7.53;63.32
22830;BME280;11581;51.250;6.778;2023-02-25T01:35:30;100278.41;;;7.53;63.51
22830;BME280;11581;51.250;6.778;2023-02-25T01:37:57;100271.41;;;7.52;63.62
22830;BME280;11581;51.250;6.778;2023-02-25T01:40:24;100260.81;;;7.42;63.37
22830;BME280;11581;51.250;6.778;2023-02-25T01:42:51;100278.53;;;7.51;63.62
22830;BME280;11581;51.250;6.778;2023-02-25T01:45:27;100283.00;;;7.51;63.91
22830;BME280;11581;51.250;6.778;2023-02-25T01:47:57;100259.94;;;7.42;64.02
22830;BME280;11581;51.250;6.778;2023-02-25T01:50:31;100276.72;;;7.52;64.33
22830;BME280;11581;51.250;6.778;2023-02-25T01:53:02;100232.03;;;7.19;64.09
22830;BME280;11581;51.250;6.778;2023-02-25T01:55:29;100277.69;;;7.51;63.80
22830;BME280;11581;51.250;6.778;2023-02-25T01:57:57;100274.19;;;7.50;63.66
22830;BME280;11581;51.250;6.778;2023-02-25T02:00:25;100258.00;;;7.34;64.23
22830;BME280;11581;51.250;6.778;2023-02-25T02:02:53;100281.47;;;7.48;64.00
22830;BME280;11581;51.250;6.778;2023-02-25T02:05:24;100273.66;;;7.47;63.76
22830;BME280;11581;51.250;6.778;2023-02-25T02:07:56;100268.34;;;7.47;63.53
22830;BME280;11581;51.250;6.778;2023-02-25T02:10:25;100271.00;;;7.47;63.98
22830;BME280;11581;51.250;6.778;2023-02-25T02:12:52;100107.50;;;6.50;63.72
22830;BME280;11581;51.250;6.778;2023-02-25T02:15:19;100194.88;;;7.00;63.77
22830;BME280;11581;51.250;6.778;2023-02-25T02:17:52;100274.66;;;7.46;63.58
22830;BME280;11581;51.250;6.778;2023-02-25T02:20:23;100269.34;;;7.46;63.48
22830;BME280;11581;51.250;6.778;2023-02-25T02:23:05;100272.00;;;7.46;63.18
22830;BME280;11581;51.250;6.778;2023-02-25T02:26:05;100243.47;;;7.29;63.53
22830;BME280;11581;51.250;6.778;2023-02-25T02:29:09;100256.47;;;7.32;63.50
22830;BME280;11581;51.250;6.778;2023-02-25T02:31:49;100281.44;;;7.39;63.23
22830;BME280;11581;51.250;6.778;2023-02-25T02:34:29;100265.81;;;7.26;63.50
22830;BME280;11581;51.250;6.778;2023-02-25T02:37:04;100193.44;;;6.76;63.29
22830;BME280;11581;51.250;6.778;2023-02-25T02:39:41;100193.19;;;6.79;63.17
22830;BME280;11581;51.250;6.778;2023-02-25T02:42:18;100270.00;;;7.29;63.54
22830;BME280;11581;51.250;6.778;2023-02-25T02:44:53;100270.97;;;7.28;63.44
22830;BME280;11581;51.250;6.778;2023-02-25T02:47:27;100275.56;;;7.26;63.54
22830;BME280;11581;51.250;6.778;2023-02-25T02:50:01;100279.22;;;7.25;63.69
22830;BME280;11581;51.250;6.778;2023-02-25T02:52:31;100272.25;;;7.24;63.77
22830;BME280;11581;51.250;6.778;2023-02-25T02:55:01;100277.53;;;7.24;63.75
22830;BME280;11581;51.250;6.778;2023-02-25T02:57:30;100267.63;;;7.26;64.05
22830;BME280;11581;51.250;6.778;2023-02-25T03:00:04;100277.28;;;7.27;64.00
22830;BME280;11581;51.250;6.778;2023-02-25T03:02:51;100275.31;;;7.29;63.74
22830;BME280;11581;51.250;6.778;2023-02-25T03:05:22;100272.50;;;7.30;63.89
22830;BME280;11581;51.250;6.778;2023-02-25T03:07:55;100240.66;;;7.11;63.69
22830;BME280;11581;51.250;6.778;2023-02-25T03:10:23;100276.72;;;7.33;63.80
22830;BME280;11581;51.250;6.778;2023-02-25T03:12:55;100223.91;;;7.01;63.81
22830;BME280;11581;51.250;6.778;2023-02-25T03:15:22;100278.41;;;7.34;63.45
22830;BME280;11581;51.250;6.778;2023-02-25T03:17:56;100278.41;;;7.34;63.60
22830;BME280;11581;51.250;6.778;2023-02-25T03:20:27;100187.88;;;6.79;63.53
22830;BME280;11581;51.250;6.778;2023-02-25T03:23:01;100270.13;;;7.27;63.48
22830;BME280;11581;51.250;6.778;2023-02-25T03:25:31;100279.38;;;7.33;63.81
22830;BME280;11581;51.250;6.778;2023-02-25T03:28:06;100289.81;;;7.34;63.72
22830;BME280;11581;51.250;6.778;2023-02-25T03:30:44;100289.00;;;7.34;63.50
22830;BME280;11581;51.250;6.778;2023-02-25T03:33:18;100301.28;;;7.35;63.74
22830;BME280;11581;51.250;6.778;2023-02-25T03:35:47;100295.69;;;7.38;63.79
22830;BME280;11581;51.250;6.778;2023-02-25T03:38:18;100293.75;;;7.40;63.99
22830;BME280;11581;51.250;6.778;2023-02-25T03:40:46;100295.44;;;7.41;63.76
22830;BME280;11581;51.250;6.778;2023-02-25T03:43:17;100299.75;;;7.42;63.80
22830;BME280;11581;51.250;6.778;2023-02-25T03:45:46;100295.16;;;7.44;63.43
22830;BME280;11581;51.250;6.778;2023-02-25T03:48:15;100232.25;;;6.97;63.76
22830;BME280;11581;51.250;6.778;2023-02-25T03:50:46;100298.53;;;7.46;63.64
22830;BME280;11581;51.250;6.778;2023-02-25T03:53:14;100302.84;;;7.47;63.50
22830;BME280;11581;51.250;6.778;2023-02-25T03:55:51;100292.22;;;7.47;63.43
22830;BME280;11581;51.250;6.778;2023-02-25T03:58:18;100303.81;;;7.46;63.21
22830;BME280;11581;51.250;6.778;2023-02-25T04:00:47;100304.78;;;7.45;63.49
22830;BME280;11581;51.250;6.778;2023-02-25T04:03:17;100309.41;;;7.43;63.29
22830;BME280;11581;51.250;6.778;2023-02-25T04:05:44;100309.41;;;7.43;63.45
22830;BME280;11581;51.250;6.778;2023-02-25T04:08:10;100285.09;;;7.28;63.60
22830;BME280;11581;51.250;6.778;2023-02-25T04:10:41;100309.41;;;7.43;63.10
22830;BME280;11581;51.250;6.778;2023-02-25T04:13:08;100337.88;;;7.41;63.51
22830;BME280;11581;51.250;6.778;2023-02-25T04:15:36;100315.81;;;7.40;63.46
22830;BME280;11581;51.250;6.778;2023-02-25T04:18:03;100314.00;;;7.41;63.60
22830;BME280;11581;51.250;6.778;2023-02-25T04:20:31;100321.09;;;7.40;63.45
22830;BME280;11581;51.250;6.778;2023-02-25T04:22:59;100275.28;;;7.10;63.57
22830;BME280;11581;51.250;6.778;2023-02-25T04:25:26;100314.13;;;7.30;63.63
22830;BME280;11581;51.250;6.778;2023-02-25T04:27:53;100328.25;;;7.40;63.66
22830;BME280;11581;51.250;6.778;2023-02-25T04:30:20;100335.22;;;7.41;63.45
22830;BME280;11581;51.250;6.778;2023-02-25T04:32:46;100328.13;;;7.41;63.55
22830;BME280;11581;51.250;6.778;2023-02-25T04:35:13;100301.81;;;7.29;63.54
22830;BME280;11581;51.250;6.778;2023-02-25T04:37:42;100330.91;;;7.40;63.56
22830;BME280;11581;51.250;6.778;2023-02-25T04:40:13;100268.28;;;7.09;63.52
22830;BME280;11581;51.250;6.778;2023-02-25T04:42:40;100323.34;;;7.45;63.48
22830;BME280;11581;51.250;6.778;2023-02-25T04:45:08;100323.34;;;7.45;63.52
22830;BME280;11581;51.250;6.778;2023-02-25T04:47:36;100317.78;;;7.48;63.53
22830;BME280;11581;51.250;6.778;2023-02-25T04:50:04;100322.94;;;7.49;63.42
22830;BME280;11581;51.250;6.778;2023-02-25T04:52:31;100321.16;;;7.50;63.72
22830;BME280;11581;51.250;6.778;2023-02-25T04:55:00;100316.66;;;7.50;63.52
22830;BME280;11581;51.250;6.778;2023-02-25T04:57:27;100316.50;;;7.52;63.24
22830;BME280;11581;51.250;6.778;2023-02-25T04:59:54;100309.41;;;7.43;63.23
22830;BME280;11581;51.250;6.778;2023-02-25T05:02:20;100324.47;;;7.52;63.25
22830;BME280;11581;51.250;6.778;2023-02-25T05:04:47;100299.34;;;7.37;63.61
22830;BME280;11581;51.250;6.778;2023-02-25T05:07:14;100302.69;;;7.39;63.12
22830;BME280;11581;51.250;6.778;2023-02-25T05:09:41;100309.97;;;7.37;63.54
22830;BME280;11581;51.250;6.778;2023-02-25T05:12:09;100292.66;;;7.33;63.11
22830;BME280;11581;51.250;6.778;2023-02-25T05:14:36;100311.34;;;7.41;63.32
22830;BME280;11581;51.250;6.778;2023-02-25T05:17:03;100321.97;;;7.50;63.35
22830;BME280;11581;51.250;6.778;2023-02-25T05:19:29;100321.97;;;7.50;63.53
22830;BME280;11581;51.250;6.778;2023-02-25T05:21:57;100317.50;;;7.51;63.35
22830;BME280;11581;51.250;6.778;2023-02-25T05:24:23;100321.00;;;7.51;63.29
22830;BME280;11581;51.250;6.778;2023-02-25T05:26:51;100297.09;;;7.42;63.30
22830;BME280;11581;51.250;6.778;2023-02-25T05:29:20;100315.84;;;7.50;63.45
22830;BME280;11581;51.250;6.778;2023-02-25T05:31:47;100324.47;;;7.52;63.59
22830;BME280;11581;51.250;6.778;2023-02-25T05:34:16;100320.03;;;7.52;63.48
22830;BME280;11581;51.250;6.778;2023-02-25T05:36:43;100314.56;;;7.44;63.62
22830;BME280;11581;51.250;6.778;2023-02-25T05:39:11;100322.53;;;7.54;63.35
22830;BME280;11581;51.250;6.778;2023-02-25T05:41:38;100338.47;;;7.54;63.41
22830;BME280;11581;51.250;6.778;2023-02-25T05:44:05;100331.47;;;7.53;63.58
22830;BME280;11581;51.250;6.778;2023-02-25T05:46:33;100335.94;;;7.52;63.39
22830;BME280;11581;51.250;6.778;2023-02-25T05:49:00;100311.34;;;7.31;63.25
22830;BME280;11581;51.250;6.778;2023-02-25T05:51:27;100313.00;;;7.42;63.40
22830;BME280;11581;51.250;6.778;2023-02-25T05:53:54;100327.25;;;7.50;63.40
22830;BME280;11581;51.250;6.778;2023-02-25T05:56:23;100324.47;;;7.42;63.14
22830;BME280;11581;51.250;6.778;2023-02-25T05:58:52;100130.59;;;6.29;63.12
22830;BME280;11581;51.250;6.778;2023-02-25T06:01:21;100333.69;;;7.48;63.03
22830;BME280;11581;51.250;6.778;2023-02-25T06:03:50;100342.63;;;7.47;63.12
22830;BME280;11581;51.250;6.778;2023-02-25T06:06:18;100324.63;;;7.41;63.19
22830;BME280;11581;51.250;6.778;2023-02-25T06:08:47;100332.16;;;7.45;63.09
22830;BME280;11581;51.250;6.778;2023-02-25T06:11:18;100328.53;;;7.37;63.30
22830;BME280;11581;51.250;6.778;2023-02-25T06:13:47;100335.66;;;7.46;63.15
22830;BME280;11581;51.250;6.778;2023-02-25T06:16:14;100336.63;;;7.45;63.42
22830;BME280;11581;51.250;6.778;2023-02-25T06:18:41;100336.63;;;7.45;63.40
22830;BME280;11581;51.250;6.778;2023-02-25T06:21:12;100342.91;;;7.44;63.26
22830;BME280;11581;51.250;6.778;2023-02-25T06:23:40;100344.59;;;7.45;63.20
22830;BME280;11581;51.250;6.778;2023-02-25T06:26:10;100342.91;;;7.44;63.11
22830;BME280;11581;51.250;6.778;2023-02-25T06:28:37;100347.22;;;7.45;63.43
22830;BME280;11581;51.250;6.778;2023-02-25T06:31:06;100353.53;;;7.44;63.30
22830;BME280;11581;51.250;6.778;2023-02-25T06:33:34;100363.28;;;7.43;63.43
22830;BME280;11581;51.250;6.778;2023-02-25T06:36:01;100362.34;;;7.44;63.32
22830;BME280;11581;51.250;6.778;2023-02-25T06:38:31;100369.44;;;7.44;62.99
22830;BME280;11581;51.250;6.778;2023-02-25T06:40:57;100367.66;;;7.44;63.44
22830;BME280;11581;51.250;6.778;2023-02-25T06:43:24;100304.72;;;7.07;63.14
22830;BME280;11581;51.250;6.778;2023-02-25T06:45:51;100373.78;;;7.45;63.57
22830;BME280;11581;51.250;6.778;2023-02-25T06:48:18;100372.81;;;7.46;63.44
22830;BME280;11581;51.250;6.778;2023-02-25T06:50:45;100372.63;;;7.38;63.19
22830;BME280;11581;51.250;6.778;2023-02-25T06:53:11;100383.13;;;7.49;63.38
22830;BME280;11581;51.250;6.778;2023-02-25T06:55:40;100381.19;;;7.51;63.52
22830;BME280;11581;51.250;6.778;2023-02-25T06:58:06;100196.97;;;6.37;63.50
22830;BME280;11581;51.250;6.778;2023-02-25T07:00:33;100387.75;;;7.56;63.62
22830;BME280;11581;51.250;6.778;2023-02-25T07:03:02;100391.00;;;7.60;63.15
22830;BME280;11581;51.250;6.778;2023-02-25T07:05:29;100385.41;;;7.63;63.63
22830;BME280;11581;51.250;6.778;2023-02-25T07:07:58;100361.75;;;7.50;63.48
22830;BME280;11581;51.250;6.778;2023-02-25T07:10:25;100389.31;;;7.68;63.33
22830;BME280;11581;51.250;6.778;2023-02-25T07:12:53;100387.25;;;7.72;63.28
22830;BME280;11581;51.250;6.778;2023-02-25T07:15:20;100249.00;;;6.88;62.85
22830;BME280;11581;51.250;6.778;2023-02-25T07:17:47;100403.56;;;7.77;62.92
22830;BME280;11581;51.250;6.778;2023-02-25T07:20:15;100398.00;;;7.80;63.08
22830;BME280;11581;51.250;6.778;2023-02-25T07:22:41;100393.41;;;7.82;62.89
22830;BME280;11581;51.250;6.778;2023-02-25T07:25:10;100307.13;;;7.29;62.75
22830;BME280;11581;51.250;6.778;2023-02-25T07:27:39;100395.50;;;7.88;63.07
22830;BME280;11581;51.250;6.778;2023-02-25T07:30:11;100378.56;;;7.79;62.77
22830;BME280;11581;51.250;6.778;2023-02-25T07:32:38;100391.03;;;7.98;63.16
22830;BME280;11581;51.250;6.778;2023-02-25T07:35:06;100273.38;;;7.31;62.67
22830;BME280;11581;51.250;6.778;2023-02-25T07:37:34;100215.50;;;6.86;62.38
22830;BME280;11581;51.250;6.778;2023-02-25T07:40:04;100297.41;;;7.48;62.40
22830;BME280;11581;51.250;6.778;2023-02-25T07:42:38;100398.28;;;8.15;62.83
22830;BME280;11581;51.250;6.778;2023-02-25T07:45:07;100399.44;;;8.22;62.84
22830;BME280;11581;51.250;6.778;2023-02-25T07:47:37;100398.88;;;8.28;62.56
22830;BME280;11581;51.250;6.778;2023-02-25T07:50:05;100308.84;;;7.68;62.45
22830;BME280;11581;51.250;6.778;2023-02-25T07:52:33;100232.59;;;7.32;62.29
22830;BME280;11581;51.250;6.778;2023-02-25T07:55:01;100357.19;;;8.19;61.85
22830;BME280;11581;51.250;6.778;2023-02-25T07:57:28;100420.22;;;8.55;61.82
22830;BME280;11581;51.250;6.778;2023-02-25T07:59:55;100411.81;;;8.59;61.82
22830;BME280;11581;51.250;6.778;2023-02-25T08:02:23;100409.72;;;8.63;61.40
22830;BME280;11581;51.250;6.778;2023-02-25T08:04:51;100316.38;;;7.91;61.12
22830;BME280;11581;51.250;6.778;2023-02-25T08:07:18;100376.47;;;8.21;61.38
22830;BME280;11581;51.250;6.778;2023-02-25T08:09:45;100382.94;;;8.28;61.10
22830;BME280;11581;51.250;6.778;2023-02-25T08:12:12;100423.56;;;8.66;60.94
22830;BME280;11581;51.250;6.778;2023-02-25T08:14:39;100425.41;;;8.66;61.21
22830;BME280;11581;51.250;6.778;2023-02-25T08:17:05;100367.00;;;8.28;61.27
22830;BME280;11581;51.250;6.778;2023-02-25T08:19:32;100443.03;;;8.67;61.12
22830;BME280;11581;51.250;6.778;2023-02-25T08:22:01;100368.38;;;8.32;60.75
22830;BME280;11581;51.250;6.778;2023-02-25T08:24:29;100318.34;;;7.99;61.26
22830;BME280;11581;51.250;6.778;2023-02-25T08:26:57;100435.75;;;8.69;61.51
22830;BME280;11581;51.250;6.778;2023-02-25T08:29:24;100436.72;;;8.68;61.57
22830;BME280;11581;51.250;6.778;2023-02-25T08:31:51;100372.31;;;8.28;61.81
22830;BME280;11581;51.250;6.778;2023-02-25T08:34:18;100092.31;;;6.52;61.74
22830;BME280;11581;51.250;6.778;2023-02-25T08:36:45;100449.31;;;8.66;62.11
22830;BME280;11581;51.250;6.778;2023-02-25T08:39:13;100426.66;;;8.52;61.78
22830;BME280;11581;51.250;6.778;2023-02-25T08:41:41;100450.31;;;8.55;61.74
22830;BME280;11581;51.250;6.778;2023-02-25T08:44:08;100465.69;;;8.52;62.00
22830;BME280;11581;51.250;6.778;2023-02-25T08:46:36;100436.63;;;8.31;62.27
22830;BME280;11581;51.250;6.778;2023-02-25T08:49:05;100466.00;;;8.39;62.43
22830;BME280;11581;51.250;6.778;2023-02-25T08:51:32;100462.94;;;8.34;62.79
22830;BME280;11581;51.250;6.778;2023-02-25T08:54:01;100464.03;;;8.32;63.21
22830;BME280;11581;51.250;6.778;2023-02-25T08:56:29;100463.22;;;8.31;63.37
22830;BME280;11581;51.250;6.778;2023-02-25T08:58:56;100377.16;;;7.75;63.63
22830;BME280;11581;51.250;6.778;2023-02-25T09:01:23;100467.94;;;8.37;64.16
22830;BME280;11581;51.250;6.778;2023-02-25T09:03:50;100468.94;;;8.46;64.59
22830;BME280;11581;51.250;6.778;2023-02-25T09:06:19;100149.22;;;6.67;64.95
22830;BME280;11581;51.250;6.778;2023-02-25T09:08:46;100460.34;;;8.71;65.47
22830;BME280;11581;51.250;6.778;2023-02-25T09:11:14;100402.03;;;8.60;66.05
22830;BME280;11581;51.250;6.778;2023-02-25T09:13:42;100463.59;;;9.21;65.76
22830;BME280;11581;51.250;6.778;2023-02-25T09:16:10;100415.47;;;9.14;65.21
22830;BME280;11581;51.250;6.778;2023-02-25T09:18:40;100410.06;;;9.33;64.19
22830;BME280;11581;51.250;6.778;2023-02-25T09:21:06;100474.38;;;10.00;63.67
22830;BME280;11581;51.250;6.778;2023-02-25T09:23:35;100480.16;;;10.23;63.10
22830;BME280;11581;51.250;6.778;2023-02-25T09:26:02;100479.16;;;10.41;62.50
22830;BME280;11581;51.250;6.778;2023-02-25T09:28:30;100401.50;;;10.19;62.59
22830;BME280;11581;51.250;6.778;2023-02-25T09:30:59;100465.78;;;10.76;61.30
22830;BME280;11581;51.250;6.778;2023-02-25T09:33:27;100415.31;;;10.57;61.57
22830;BME280;11581;51.250;6.778;2023-02-25T09:35:54;100488.06;;;11.10;61.17
22830;BME280;11581;51.250;6.778;2023-02-25T09:38:20;100342.53;;;10.39;60.37
22830;BME280;11581;51.250;6.778;2023-02-25T09:40:48;100461.06;;;11.13;59.60
22830;BME280;11581;51.250;6.778;2023-02-25T09:43:20;100481.53;;;11.38;58.73
22830;BME280;11581;51.250;6.778;2023-02-25T09:45:49;100490.94;;;11.51;59.62
22830;BME280;11581;51.250;6.778;2023-02-25T09:48:24;100477.03;;;11.65;59.81
22830;BME280;11581;51.250;6.778;2023-02-25T09:50:58;100345.88;;;11.00;58.63
22830;BME280;11581;51.250;6.778;2023-02-25T09:53:31;100379.75;;;11.33;58.96
22830;BME280;11581;51.250;6.778;2023-02-25T09:56:04;100459.09;;;11.99;57.33
22830;BME280;11581;51.250;6.778;2023-02-25T09:58:35;100515.84;;;12.50;56.56
22830;BME280;11581;51.250;6.778;2023-02-25T10:01:05;100520.88;;;12.61;55.74
22830;BME280;11581;51.250;6.778;2023-02-25T10:03:46;100515.69;;;12.68;55.15
22830;BME280;11581;51.250;6.778;2023-02-25T10:06:23;100320.03;;;11.51;55.01
22830;BME280;11581;51.250;6.778;2023-02-25T10:09:01;100429.03;;;11.97;54.52
22830;BME280;11581;51.250;6.778;2023-02-25T10:11:40;100423.31;;;11.84;53.58
22830;BME280;11581;51.250;6.778;2023-02-25T10:14:19;100548.75;;;12.35;53.63
22830;BME280;11581;51.250;6.778;2023-02-25T10:16:57;100496.25;;;11.76;53.84
22830;BME280;11581;51.250;6.778;2023-02-25T10:19:38;100555.94;;;11.85;54.75
22830;BME280;11581;51.250;6.778;2023-02-25T10:22:19;100555.59;;;11.54;54.49
22830;BME280;11581;51.250;6.778;2023-02-25T10:24:51;100574.88;;;11.22;55.55
22830;BME280;11581;51.250;6.778;2023-02-25T10:27:32;100582.94;;;10.87;55.53
22830;BME280;11581;51.250;6.778;2023-02-25T10:30:10;100590.25;;;10.50;56.33
22830;BME280;11581;51.250;6.778;2023-02-25T10:32:42;100598.88;;;10.17;57.07
22830;BME280;11581;51.250;6.778;2023-02-25T10:35:15;100609.91;;;9.86;57.61
22830;BME280;11581;51.250;6.778;2023-02-25T10:37:43;100476.91;;;8.65;57.06
22830;BME280;11581;51.250;6.778;2023-02-25T10:40:14;100577.75;;;9.04;57.35
22830;BME280;11581;51.250;6.778;2023-02-25T10:42:46;100307.25;;;7.18;58.22
22830;BME280;11581;51.250;6.778;2023-02-25T10:45:19;100622.53;;;8.71;59.20
22830;BME280;11581;51.250;6.778;2023-02-25T10:47:54;100615.13;;;8.46;60.13
22830;BME280;11581;51.250;6.778;2023-02-25T10:50:26;100149.09;;;5.39;60.85
22830;BME280;11581;51.250;6.778;2023-02-25T10:52:58;100610.09;;;8.13;61.34
22830;BME280;11581;51.250;6.778;2023-02-25T10:55:28;100561.00;;;7.68;62.29
22830;BME280;11581;51.250;6.778;2023-02-25T10:57:57;100621.34;;;7.96;63.19
22830;BME280;11581;51.250;6.778;2023-02-25T11:00:29;100557.47;;;7.58;64.07
22830;BME280;11581;51.250;6.778;2023-02-25T11:02:59;100619.97;;;8.01;64.99
22830;BME280;11581;51.250;6.778;2023-02-25T11:05:35;100625.34;;;8.11;66.49
22830;BME280;11581;51.250;6.778;2023-02-25T11:08:04;100513.59;;;7.54;68.02
22830;BME280;11581;51.250;6.778;2023-02-25T11:10:33;100504.69;;;8.04;70.85
22830;BME280;11581;51.250;6.778;2023-02-25T11:13:00;100615.56;;;9.27;72.34
22830;BME280;11581;51.250;6.778;2023-02-25T11:15:32;100593.03;;;10.04;72.80
22830;BME280;11581;51.250;6.778;2023-02-25T11:18:06;100464.47;;;10.20;70.28
22830;BME280;11581;51.250;6.778;2023-02-25T11:20:47;100557.78;;;11.84;69.04
22830;BME280;11581;51.250;6.778;2023-02-25T11:23:19;100595.03;;;13.09;69.26
22830;BME280;11581;51.250;6.778;2023-02-25T11:25:47;100587.63;;;14.14;68.07
22830;BME280;11581;51.250;6.778;2023-02-25T11:28:21;100597.47;;;15.13;63.98
22830;BME280;11581;51.250;6.778;2023-02-25T11:30:51;100586.94;;;16.07;64.03
22830;BME280;11581;51.250;6.778;2023-02-25T11:33:22;100456.31;;;16.19;56.70
22830;BME280;11581;51.250;6.778;2023-02-25T11:35:56;100556.59;;;17.47;52.88
22830;BME280;11581;51.250;6.778;2023-02-25T11:38:27;100592.94;;;18.19;52.27
22830;BME280;11581;51.250;6.778;2023-02-25T11:40:54;100585.81;;;18.52;50.49
22830;BME280;11581;51.250;6.778;2023-02-25T11:43:23;100493.47;;;18.10;47.46
22830;BME280;11581;51.250;6.778;2023-02-25T11:45:54;100516.75;;;18.17;45.33
22830;BME280;11581;51.250;6.778;2023-02-25T11:48:24;100584.81;;;18.53;46.15
22830;BME280;11581;51.250;6.778;2023-02-25T11:51:00;100549.59;;;18.34;43.41
22830;BME280;11581;51.250;6.778;2023-02-25T11:53:44;100585.06;;;18.65;45.27
22830;BME280;11581;51.250;6.778;2023-02-25T11:56:18;100553.06;;;18.68;45.00
22830;BME280;11581;51.250;6.778;2023-02-25T11:58:58;100467.38;;;18.36;43.90
22830;BME280;11581;51.250;6.778;2023-02-25T12:01:39;100595.13;;;19.16;41.04
22830;BME280;11581;51.250;6.778;2023-02-25T12:07:15;100574.72;;;19.07;40.64
22830;BME280;11581;51.250;6.778;2023-02-25T12:10:10;100571.00;;;19.02;40.92
22830;BME280;11581;51.250;6.778;2023-02-25T12:19:33;100575.16;;;19.04;40.26
22830;BME280;11581;51.250;6.778;2023-02-25T12:25:34;100536.88;;;18.94;39.11
22830;BME280;11581;51.250;6.778;2023-02-25T12:28:14;100584.72;;;19.13;39.41
22830;BME280;11581;51.250;6.778;2023-02-25T12:34:07;100596.16;;;19.15;39.96
22830;BME280;11581;51.250;6.778;2023-02-25T12:36:47;100608.22;;;19.06;37.47
22830;BME280;11581;51.250;6.778;2023-02-25T12:39:45;100602.34;;;18.83;37.32
22830;BME280;11581;51.250;6.778;2023-02-25T12:42:26;100606.19;;;18.48;35.32
22830;BME280;11581;51.250;6.778;2023-02-25T12:45:27;100603.00;;;17.98;36.39
22830;BME280;11581;51.250;6.778;2023-02-25T12:48:25;100588.50;;;17.43;37.93
22830;BME280;11581;51.250;6.778;2023-02-25T12:51:20;100607.38;;;17.22;38.04
22830;BME280;11581;51.250;6.778;2023-02-25T12:54:03;100546.69;;;16.84;37.96
22830;BME280;11581;51.250;6.778;2023-02-25T12:56:51;100595.34;;;17.04;38.26
22830;BME280;11581;51.250;6.778;2023-02-25T12:59:36;100598.97;;;17.11;38.77
22830;BME280;11581;51.250;6.778;2023-02-25T13:02:26;100590.34;;;17.22;38.81
22830;BME280;11581;51.250;6.778;2023-02-25T13:05:20;100584.31;;;17.41;38.58
22830;BME280;11581;51.250;6.778;2023-02-25T13:08:10;100554.00;;;17.39;38.63
22830;BME280;11581;51.250;6.778;2023-02-25T13:10:51;100596.25;;;17.81;37.81
22830;BME280;11581;51.250;6.778;2023-02-25T13:13:47;100567.38;;;17.81;37.02
22830;BME280;11581;51.250;6.778;2023-02-25T13:16:41;100607.03;;;18.15;36.52
22830;BME280;11581;51.250;6.778;2023-02-25T13:19:26;100601.69;;;18.28;36.67
22830;BME280;11581;51.250;6.778;2023-02-25T13:22:04;100605.06;;;18.36;35.82
22830;BME280;11581;51.250;6.778;2023-02-25T13:24:52;100608.66;;;18.43;35.04
22830;BME280;11581;51.250;6.778;2023-02-25T13:27:32;100610.03;;;18.33;34.10
22830;BME280;11581;51.250;6.778;2023-02-25T13:30:20;100537.50;;;17.76;33.21
22830;BME280;11581;51.250;6.778;2023-02-25T13:33:04;100587.59;;;17.92;33.19
22830;BME280;11581;51.250;6.778;2023-02-25T13:35:43;100405.47;;;16.66;32.14